Time;durP1;ratioP1;P1;durP2;ratioP2;P2;SDS_P1;SDS_P2;PMS_P1;PMS_P2;Temp;Humidity;BMP_temperature;BMP_pressure;BME280_temperature;BME280_humidity;BME280_pressure;Samples;Min_cycle;Max_cycle;Signal;HPM_P1;HPM_P2
2021/12/21 00:00:47;;;;;;;13.03;6.67;;;0.90;99.90;;;;;;5094335;28;20487;-57
2021/12/21 00:03:15;;;;;;;14.80;7.10;;;1.00;99.90;;;;;;5094034;28;20454;-57
2021/12/21 00:05:44;;;;;;;7.70;6.30;;;1.00;99.90;;;;;;5093540;28;20791;-57
2021/12/21 00:08:13;;;;;;;10.33;8.00;;;1.10;99.90;;;;;;5094133;28;20427;-56
2021/12/21 00:10:43;;;;;;;12.80;6.97;;;1.20;99.90;;;;;;5093816;28;20542;-57
2021/12/21 00:13:23;;;;;;;11.60;7.93;;;1.10;99.90;;;;;;5093967;28;20454;-57
2021/12/21 00:15:57;;;;;;;11.00;7.93;;;1.00;99.90;;;;;;5093564;28;20875;-57
2021/12/21 00:18:39;;;;;;;17.27;8.97;;;0.90;99.90;;;;;;5093707;28;20521;-57
2021/12/21 00:21:13;;;;;;;13.93;8.23;;;1.00;99.90;;;;;;5093866;28;20520;-57
2021/12/21 00:23:43;;;;;;;10.33;7.60;;;1.10;99.90;;;;;;5093827;28;20428;-57
2021/12/21 00:26:11;;;;;;;11.87;7.90;;;1.20;99.90;;;;;;5093593;28;20483;-57
2021/12/21 00:28:47;;;;;;;11.50;8.00;;;1.20;99.90;;;;;;5093240;28;20903;-57
2021/12/21 00:31:14;;;;;;;12.77;8.57;;;1.20;99.90;;;;;;5093357;28;20467;-57
2021/12/21 00:33:45;;;;;;;18.50;9.10;;;1.20;99.90;;;;;;5093222;28;20459;-57
2021/12/21 00:36:15;;;;;;;13.33;7.90;;;1.30;99.90;;;;;;5093058;28;20952;-57
2021/12/21 00:38:42;;;;;;;12.53;7.80;;;1.30;99.90;;;;;;5093337;28;20450;-57
2021/12/21 00:41:09;;;;;;;14.43;8.07;;;1.30;99.90;;;;;;5092929;28;20981;-57
2021/12/21 00:43:37;;;;;;;15.57;8.80;;;1.00;99.90;;;;;;5093395;28;20448;-57
2021/12/21 00:46:04;;;;;;;10.23;8.13;;;0.90;99.90;;;;;;5093271;28;20444;-57
2021/12/21 00:48:33;;;;;;;10.53;7.83;;;0.80;99.90;;;;;;5093481;28;20444;-56
2021/12/21 00:51:02;;;;;;;13.97;8.00;;;0.80;99.90;;;;;;5092664;28;20966;-57
2021/12/21 00:53:30;;;;;;;11.27;7.33;;;0.80;99.90;;;;;;5093072;28;20447;-57
2021/12/21 00:55:58;;;;;;;14.03;7.97;;;1.00;99.90;;;;;;5092792;28;20538;-57
2021/12/21 00:58:25;;;;;;;10.03;7.80;;;1.00;99.90;;;;;;5093057;28;20443;-57
2021/12/21 01:00:52;;;;;;;13.57;7.67;;;1.00;99.90;;;;;;5093047;28;20491;-57
2021/12/21 01:03:20;;;;;;;11.03;7.47;;;0.90;99.90;;;;;;5093124;28;20454;-57
2021/12/21 01:05:53;;;;;;;7.47;6.70;;;1.00;99.90;;;;;;5091301;28;20462;-57
2021/12/21 01:08:25;;;;;;;24.73;9.93;;;1.10;99.90;;;;;;5093113;28;20497;-57
2021/12/21 01:11:04;;;;;;;7.93;7.17;;;1.00;99.90;;;;;;5093006;28;20469;-57
2021/12/21 01:16:22;;;;;;;10.43;7.57;;;1.10;99.90;;;;;;5092210;28;20431;-57
2021/12/21 01:19:11;;;;;;;7.87;6.63;;;1.00;99.90;;;;;;5092807;28;20459;-57
2021/12/21 01:21:44;;;;;;;14.30;7.97;;;0.90;99.90;;;;;;5092802;28;20460;-57
2021/12/21 01:24:33;;;;;;;13.20;7.07;;;0.80;99.90;;;;;;5092993;28;20538;-56
2021/12/21 01:27:15;;;;;;;9.57;7.27;;;0.80;99.90;;;;;;5092712;28;20427;-56
2021/12/21 01:29:52;;;;;;;9.30;6.67;;;0.60;99.90;;;;;;5092620;28;20427;-57
2021/12/21 01:32:31;;;;;;;9.00;6.63;;;0.80;99.90;;;;;;5092474;28;20424;-57
2021/12/21 01:35:03;;;;;;;8.10;7.30;;;1.00;99.90;;;;;;5092581;28;20423;-57
2021/12/21 01:37:42;;;;;;;12.10;8.20;;;1.10;99.90;;;;;;5092668;28;20424;-57
2021/12/21 01:40:24;;;;;;;13.43;6.63;;;0.90;99.90;;;;;;5092221;28;20494;-57
2021/12/21 01:51:17;;;;;;;8.60;6.20;;;0.70;99.90;;;;;;5067623;28;20497;-57
2021/12/21 01:53:44;;;;;;;8.87;6.63;;;0.70;99.90;;;;;;5092481;28;20436;-57
2021/12/21 01:56:12;;;;;;;8.17;6.93;;;0.80;99.90;;;;;;5092638;28;20450;-57
2021/12/21 01:58:42;;;;;;;8.60;7.80;;;0.80;99.90;;;;;;5092486;28;20742;-57
2021/12/21 02:01:12;;;;;;;7.40;6.63;;;0.70;99.90;;;;;;5092363;28;20498;-57
2021/12/21 02:03:41;;;;;;;9.40;6.80;;;0.70;99.90;;;;;;5092564;28;20444;-57
2021/12/21 02:06:08;;;;;;;10.70;7.00;;;0.80;99.90;;;;;;5091857;28;20518;-57
2021/12/21 02:08:36;;;;;;;7.57;6.87;;;0.90;99.90;;;;;;5092408;28;20534;-57
2021/12/21 02:11:04;;;;;;;11.60;7.80;;;0.70;99.90;;;;;;5092001;28;20463;-57
2021/12/21 02:13:36;;;;;;;10.90;8.50;;;0.60;99.90;;;;;;5092371;28;20498;-57
2021/12/21 02:16:06;;;;;;;16.27;8.27;;;0.60;99.90;;;;;;5092345;28;20485;-57
2021/12/21 02:18:43;;;;;;;15.13;8.10;;;0.50;99.90;;;;;;5092186;28;20501;-57
2021/12/21 02:21:21;;;;;;;12.50;7.93;;;0.70;99.90;;;;;;5092388;28;20482;-57
2021/12/21 02:23:51;;;;;;;13.10;7.90;;;0.60;99.90;;;;;;5092470;28;20463;-57
2021/12/21 02:26:36;;;;;;;10.67;6.90;;;0.60;99.90;;;;;;5092749;28;20796;-57
2021/12/21 02:29:16;;;;;;;8.67;7.07;;;0.70;99.90;;;;;;5095939;28;20432;-57
2021/12/21 02:31:46;;;;;;;11.80;7.90;;;0.80;99.90;;;;;;5095542;28;20528;-57
2021/12/21 02:34:14;;;;;;;15.07;7.90;;;0.70;99.90;;;;;;5095581;28;20450;-57
2021/12/21 02:36:45;;;;;;;16.97;8.20;;;0.80;99.90;;;;;;5095989;28;20458;-57
2021/12/21 02:39:13;;;;;;;11.00;7.97;;;0.70;99.90;;;;;;5095551;28;20432;-57
2021/12/21 02:41:41;;;;;;;11.60;7.10;;;0.70;99.90;;;;;;5095105;28;20489;-57
2021/12/21 02:44:08;;;;;;;11.73;7.80;;;0.70;99.90;;;;;;5095754;28;20805;-57
2021/12/21 02:46:38;;;;;;;14.73;7.97;;;0.50;99.90;;;;;;5095282;28;20454;-57
2021/12/21 02:49:06;;;;;;;12.13;8.40;;;0.50;99.90;;;;;;5095590;28;20815;-57
2021/12/21 02:51:33;;;;;;;9.80;7.70;;;0.50;99.90;;;;;;5095531;28;20467;-57
2021/12/21 02:54:01;;;;;;;10.37;7.27;;;0.60;99.90;;;;;;5096009;28;20439;-57
2021/12/21 02:56:29;;;;;;;21.30;9.80;;;0.50;99.90;;;;;;5095505;28;20447;-57
2021/12/21 02:58:56;;;;;;;15.23;8.40;;;;;;;;;;5095636;28;20803;-57
2021/12/21 03:01:23;;;;;;;8.67;7.17;;;0.40;99.90;;;;;;5095462;28;20997;-57
2021/12/21 03:03:52;;;;;;;10.90;8.00;;;0.40;99.90;;;;;;5095483;28;20454;-57
2021/12/21 03:06:48;;;;;;;11.00;7.20;;;0.30;99.90;;;;;;5094944;28;20503;-57
2021/12/21 03:09:35;;;;;;;8.80;7.90;;;0.30;99.90;;;;;;5095005;28;20493;-57
2021/12/21 03:12:11;;;;;;;10.50;7.17;;;0.30;99.90;;;;;;5094856;28;20435;-57
2021/12/21 03:14:39;;;;;;;10.50;7.40;;;0.40;99.90;;;;;;5095027;28;20535;-57
2021/12/21 03:17:07;;;;;;;16.47;8.13;;;0.30;99.90;;;;;;5095605;28;20448;-57
2021/12/21 03:19:35;;;;;;;9.90;6.90;;;0.30;99.90;;;;;;5094695;28;20538;-57
2021/12/21 03:22:02;;;;;;;13.57;8.10;;;0.30;99.90;;;;;;5095057;28;20444;-57
2021/12/21 03:24:31;;;;;;;9.43;7.70;;;0.50;99.90;;;;;;5094881;28;20538;-57
2021/12/21 03:26:58;;;;;;;9.40;7.03;;;0.40;99.90;;;;;;5095045;28;20455;-57
2021/12/21 03:29:25;;;;;;;7.30;6.10;;;0.30;99.90;;;;;;5094858;28;20435;-57
2021/12/21 03:31:52;;;;;;;7.97;6.57;;;0.20;99.90;;;;;;5094984;28;20566;-57
2021/12/21 03:34:20;;;;;;;13.40;7.50;;;0.20;99.90;;;;;;5094788;28;20806;-57
2021/12/21 03:36:48;;;;;;;7.80;7.10;;;0.10;99.90;;;;;;5094843;28;20466;-57
2021/12/21 03:39:18;;;;;;;9.70;7.30;;;0.10;99.90;;;;;;5094213;28;20459;-57
2021/12/21 03:41:49;;;;;;;8.20;6.80;;;0.20;99.90;;;;;;5094848;28;20483;-57
2021/12/21 03:44:18;;;;;;;8.17;7.37;;;0.40;99.90;;;;;;5094545;28;20427;-57
2021/12/21 03:46:47;;;;;;;17.53;7.10;;;0.30;99.90;;;;;;5094462;28;20443;-57
2021/12/21 03:49:50;;;;;;;9.13;6.93;;;0.30;99.90;;;;;;5094267;28;20443;-57
2021/12/21 03:52:14;;;;;;;9.33;5.67;;;0.20;99.90;;;;;;5093926;28;20500;-57
2021/12/21 03:54:44;;;;;;;9.20;6.90;;;0.10;99.90;;;;;;5094440;28;20450;-57
2021/12/21 03:57:12;;;;;;;9.63;6.77;;;0.20;99.90;;;;;;5093884;28;20551;-57
2021/12/21 03:59:41;;;;;;;10.47;7.30;;;0.30;99.90;;;;;;5093886;28;20483;-57
2021/12/21 04:02:10;;;;;;;9.80;7.37;;;0.40;99.90;;;;;;5094200;28;20823;-57
2021/12/21 04:04:38;;;;;;;12.20;7.17;;;0.30;99.90;;;;;;5093953;28;20454;-57
2021/12/21 04:07:05;;;;;;;13.00;6.60;;;0.30;99.90;;;;;;5093668;28;20833;-57
2021/12/21 04:09:32;;;;;;;7.83;7.03;;;0.20;99.90;;;;;;5093912;28;20443;-57
2021/12/21 04:12:01;;;;;;;7.80;6.07;;;0.20;99.90;;;;;;5094139;28;20444;-57
2021/12/21 04:14:30;;;;;;;13.70;7.67;;;0.30;99.90;;;;;;5093664;28;20930;-57
2021/12/21 04:16:57;;;;;;;7.40;6.70;;;0.40;99.90;;;;;;5093545;28;20964;-57
2021/12/21 04:19:25;;;;;;;9.03;6.50;;;0.30;99.90;;;;;;5093768;28;20600;-57
2021/12/21 04:21:52;;;;;;;8.47;6.40;;;0.10;99.90;;;;;;5093662;28;20794;-57
2021/12/21 04:24:20;;;;;;;18.37;7.47;;;0.10;99.90;;;;;;5093468;28;20535;-57
2021/12/21 04:26:47;;;;;;;7.50;6.70;;;0.00;99.90;;;;;;5093621;28;20444;-57
2021/12/21 04:29:15;;;;;;;8.70;6.87;;;-0.10;99.90;;;;;;5093766;28;20539;-57
2021/12/21 04:31:43;;;;;;;8.90;6.33;;;-0.10;99.90;;;;;;5093542;28;20816;-56
2021/12/21 04:34:10;;;;;;;7.70;7.00;;;0.00;99.90;;;;;;5093395;28;20884;-57
2021/12/21 04:36:38;;;;;;;11.77;6.33;;;0.10;99.90;;;;;;5093464;28;20457;-57
2021/12/21 04:39:16;;;;;;;11.97;6.57;;;0.20;99.90;;;;;;5093133;28;20961;-57
2021/12/21 04:41:44;;;;;;;6.50;5.90;;;0.20;99.90;;;;;;5093232;28;20483;-57
2021/12/21 04:44:11;;;;;;;7.80;6.23;;;0.30;99.90;;;;;;5093400;28;20455;-57
2021/12/21 04:46:38;;;;;;;9.17;6.10;;;0.30;99.90;;;;;;5093118;28;20534;-57
2021/12/21 04:49:07;;;;;;;10.83;7.00;;;0.20;99.90;;;;;;5092297;28;20886;-56
2021/12/21 04:51:34;;;;;;;8.50;6.17;;;0.00;99.90;;;;;;5093108;28;20832;-56
2021/12/21 04:54:01;;;;;;;8.40;6.70;;;0.00;99.90;;;;;;5093059;28;20458;-56
2021/12/21 04:56:28;;;;;;;8.60;6.60;;;-0.10;99.90;;;;;;5093079;28;20456;-57
2021/12/21 04:58:55;;;;;;;8.30;6.50;;;-0.20;99.90;;;;;;5093071;28;20443;-56
2021/12/21 05:01:22;;;;;;;7.93;6.27;;;-0.10;99.90;;;;;;5093099;28;20853;-56
2021/12/21 05:03:49;;;;;;;13.27;7.57;;;0.00;99.90;;;;;;5093369;28;20444;-56
2021/12/21 05:06:19;;;;;;;8.93;6.40;;;-0.10;99.90;;;;;;5093431;28;21003;-56
2021/12/21 05:09:03;;;;;;;7.93;6.87;;;0.00;99.90;;;;;;5093609;28;20527;-56
2021/12/21 05:11:34;;;;;;;11.93;8.70;;;0.00;99.90;;;;;;5092810;28;20459;-57
2021/12/21 05:14:02;;;;;;;17.03;7.70;;;0.00;99.90;;;;;;5093105;28;20436;-56
2021/12/21 05:16:29;;;;;;;13.50;7.60;;;0.00;99.90;;;;;;5092997;28;20459;-56
2021/12/21 05:18:56;;;;;;;23.77;9.20;;;-0.10;99.90;;;;;;5093120;28;20534;-56
2021/12/21 05:21:24;;;;;;;9.20;8.27;;;-0.10;99.90;;;;;;5092555;28;21039;-56
2021/12/21 05:23:51;;;;;;;11.30;8.20;;;-0.10;99.90;;;;;;5092920;28;20582;-57
2021/12/21 05:26:19;;;;;;;8.87;6.73;;;-0.10;99.90;;;;;;5092833;28;20428;-56
2021/12/21 05:28:46;;;;;;;11.37;7.80;;;0.00;99.90;;;;;;5091322;28;20891;-56
2021/12/21 05:31:13;;;;;;;11.23;7.33;;;0.00;99.90;;;;;;5092754;28;20468;-57
2021/12/21 05:33:40;;;;;;;13.03;9.07;;;0.00;99.90;;;;;;5092906;28;20453;-57
2021/12/21 05:36:07;;;;;;;11.90;7.10;;;0.10;99.90;;;;;;5092788;28;20506;-57
2021/12/21 05:38:36;;;;;;;7.10;6.40;;;0.20;99.90;;;;;;5092449;28;20486;-57
2021/12/21 05:41:06;;;;;;;13.57;7.03;;;0.20;99.90;;;;;;5092849;28;20483;-56
2021/12/21 05:43:33;;;;;;;9.27;6.40;;;0.20;99.90;;;;;;5092562;28;20471;-56
2021/12/21 05:46:01;;;;;;;8.60;6.57;;;0.10;99.90;;;;;;5092736;28;20535;-56
2021/12/21 05:48:28;;;;;;;15.43;7.00;;;0.10;99.90;;;;;;5092467;28;20447;-56
2021/12/21 05:50:55;;;;;;;7.60;6.50;;;0.00;99.90;;;;;;5092397;28;20828;-56
2021/12/21 05:53:23;;;;;;;13.97;6.43;;;-0.10;99.90;;;;;;5092526;28;20443;-57
2021/12/21 05:55:51;;;;;;;9.90;6.80;;;-0.30;99.90;;;;;;5092511;28;20444;-57
2021/12/21 05:58:18;;;;;;;9.33;6.30;;;-0.30;99.90;;;;;;5092816;28;20451;-56
2021/12/21 06:00:46;;;;;;;10.40;7.07;;;-0.40;99.90;;;;;;5093677;28;20785;-56
2021/12/21 06:03:13;;;;;;;5.77;5.20;;;-0.30;99.90;;;;;;5096113;28;20948;-56
2021/12/21 06:05:40;;;;;;;9.77;6.57;;;-0.30;99.90;;;;;;5096611;28;20565;-56
2021/12/21 06:08:07;;;;;;;14.27;6.60;;;-0.30;99.90;;;;;;5096037;28;20508;-56
2021/12/21 06:10:38;;;;;;;9.17;6.40;;;-0.20;99.90;;;;;;5096250;28;20467;-56
2021/12/21 06:13:42;;;;;;;10.10;6.00;;;-0.10;99.90;;;;;;5096370;28;20435;-57
2021/12/21 06:16:28;;;;;;;10.83;6.70;;;-0.20;99.90;;;;;;5096325;28;20514;-56
2021/12/21 06:27:14;;;;;;;10.60;6.93;;;-0.40;99.90;;;;;;5061383;28;20424;-56
2021/12/21 06:29:43;;;;;;;5.73;5.13;;;-0.50;99.90;;;;;;5095923;28;20526;-56
2021/12/21 06:32:11;;;;;;;10.90;7.40;;;-0.50;99.90;;;;;;5095772;28;20863;-57
2021/12/21 06:34:39;;;;;;;10.50;7.47;;;-0.50;99.90;;;;;;5095808;28;20471;-57
2021/12/21 06:37:07;;;;;;;9.47;6.80;;;-0.50;99.90;;;;;;5096174;28;20809;-56
2021/12/21 06:39:34;;;;;;;8.13;6.60;;;-0.60;99.90;;;;;;5095240;28;20423;-56
2021/12/21 06:42:02;;;;;;;6.93;5.80;;;-0.50;99.90;;;;;;5095124;28;20579;-56
2021/12/21 06:44:30;;;;;;;8.97;6.90;;;-0.50;99.90;;;;;;5095215;28;20458;-56
2021/12/21 06:51:08;;;;;;;7.50;6.50;;;-0.50;99.90;;;;;;5095801;28;20453;-56
2021/12/21 06:52:36;;;;;;;11.07;6.33;;;-0.60;99.90;;;;;;5072451;28;20492;-57
2021/12/21 06:55:04;;;;;;;9.20;7.40;;;-0.50;99.90;;;;;;5095286;28;20467;-57
2021/12/21 06:57:32;;;;;;;8.40;6.70;;;-0.50;99.90;;;;;;5095512;28;20443;-57
2021/12/21 06:59:59;;;;;;;9.47;6.90;;;-0.40;99.90;;;;;;5095135;28;20463;-57
2021/12/21 07:02:28;;;;;;;11.20;7.60;;;-0.30;99.90;;;;;;5095207;28;20486;-57
2021/12/21 07:04:56;;;;;;;11.67;7.60;;;-0.40;99.90;;;;;;5095172;28;20534;-57
2021/12/21 07:07:24;;;;;;;11.50;8.37;;;-0.40;99.90;;;;;;5094692;28;20482;-56
2021/12/21 07:09:59;;;;;;;12.03;7.73;;;-0.30;99.90;;;;;;5095082;28;20463;-57
2021/12/21 07:17:49;;;;;;;9.90;7.43;;;-0.20;99.90;;;;;;5094109;28;20424;-56
2021/12/21 07:18:25;;;;;;;12.83;7.03;;;-0.30;99.90;;;;;;5094954;28;20522;-56
2021/12/21 07:20:52;;;;;;;14.17;6.40;;;-0.40;99.90;;;;;;5094684;28;20818;-56
2021/12/21 07:23:19;;;;;;;9.93;6.33;;;-0.40;99.90;;;;;;5094577;28;20447;-56
2021/12/21 07:25:47;;;;;;;6.90;6.27;;;-0.40;99.90;;;;;;5094879;28;20478;-57
2021/12/21 07:28:14;;;;;;;11.00;7.47;;;-0.40;99.90;;;;;;5094907;28;20447;-57
2021/12/21 07:30:42;;;;;;;10.70;6.73;;;-0.40;99.90;;;;;;5094659;28;20521;-56
2021/12/21 07:33:10;;;;;;;10.67;7.70;;;-0.40;99.90;;;;;;5094419;28;20542;-56
2021/12/21 07:35:37;;;;;;;19.33;8.33;;;-0.60;99.90;;;;;;5094491;28;20959;-57
2021/12/21 07:38:09;;;;;;;11.30;7.10;;;-0.50;99.90;;;;;;5094884;28;20428;-56
2021/12/21 07:40:36;;;;;;;11.03;6.90;;;-0.30;99.90;;;;;;5094391;28;20477;-56
2021/12/21 07:43:04;;;;;;;12.40;7.40;;;-0.20;99.90;;;;;;5094339;28;20485;-56
2021/12/21 07:45:31;;;;;;;8.37;6.87;;;-0.20;99.90;;;;;;5094212;28;20454;-57
2021/12/21 07:47:58;;;;;;;10.03;7.17;;;-0.30;99.90;;;;;;5094366;28;20443;-57
2021/12/21 07:50:27;;;;;;;9.13;7.00;;;-0.40;99.90;;;;;;5094557;28;20554;-57
2021/12/21 07:52:56;;;;;;;10.47;7.03;;;-0.40;99.90;;;;;;5094208;28;20449;-56
2021/12/21 07:55:24;;;;;;;11.40;7.10;;;-0.30;99.90;;;;;;5093884;28;20490;-57
2021/12/21 07:57:51;;;;;;;8.43;6.50;;;-0.30;99.90;;;;;;5094319;28;20963;-57
2021/12/21 08:00:21;;;;;;;8.47;6.83;;;-0.30;99.90;;;;;;5094034;28;20469;-57
2021/12/21 08:02:48;;;;;;;11.30;6.80;;;-0.20;99.90;;;;;;5093889;28;20562;-56
2021/12/21 08:05:16;;;;;;;7.23;6.10;;;-0.10;99.90;;;;;;5093703;28;20447;-57
2021/12/21 08:07:50;;;;;;;11.70;7.73;;;0.10;99.90;;;;;;5093783;28;20582;-57
2021/12/21 08:10:26;;;;;;;11.27;7.40;;;0.10;99.90;;;;;;5094078;28;20466;-57
2021/12/21 08:12:53;;;;;;;8.10;6.67;;;0.10;99.90;;;;;;5093398;28;20427;-57
2021/12/21 08:15:21;;;;;;;12.73;7.37;;;0.20;99.90;;;;;;5093758;28;20481;-56
2021/12/21 08:17:48;;;;;;;12.20;9.33;;;0.20;99.90;;;;;;5093898;28;20454;-57
2021/12/21 08:20:15;;;;;;;14.13;7.13;;;0.20;99.90;;;;;;5093647;28;20463;-57
2021/12/21 08:22:42;;;;;;;13.63;7.60;;;0.20;99.90;;;;;;5093459;28;20471;-57
2021/12/21 08:25:12;;;;;;;17.40;8.03;;;0.10;99.90;;;;;;5092662;28;20447;-57
2021/12/21 08:27:39;;;;;;;11.53;7.70;;;0.20;99.90;;;;;;5093336;28;20479;-57
2021/12/21 08:30:08;;;;;;;15.00;8.17;;;0.30;99.90;;;;;;5093245;28;20459;-57
2021/12/21 08:32:35;;;;;;;15.23;7.53;;;0.30;99.90;;;;;;5093685;28;20475;-56
2021/12/21 08:35:02;;;;;;;11.53;6.97;;;0.30;99.90;;;;;;5093105;28;20483;-57
2021/12/21 08:37:29;;;;;;;9.20;7.83;;;0.40;99.90;;;;;;5093136;28;20966;-56
2021/12/21 08:39:56;;;;;;;11.20;7.90;;;0.40;99.90;;;;;;5093140;28;20559;-56
2021/12/21 08:42:26;;;;;;;14.30;7.37;;;0.40;99.90;;;;;;5093301;28;20846;-56
2021/12/21 08:44:53;;;;;;;10.33;7.13;;;0.30;99.90;;;;;;5092992;28;20945;-56
2021/12/21 08:47:22;;;;;;;10.63;7.07;;;0.40;99.90;;;;;;5093179;28;20539;-56
2021/12/21 08:49:50;;;;;;;11.40;7.60;;;0.50;99.90;;;;;;5093390;28;20460;-57
2021/12/21 08:52:17;;;;;;;14.00;7.63;;;0.50;99.90;;;;;;5093049;28;20443;-57
2021/12/21 08:54:45;;;;;;;8.83;7.13;;;0.50;99.90;;;;;;5093019;28;20839;-56
2021/12/21 08:57:12;;;;;;;7.77;6.90;;;0.50;99.90;;;;;;5092970;28;20955;-57
2021/12/21 08:59:41;;;;;;;11.87;7.53;;;0.50;99.90;;;;;;5092891;28;20902;-56
2021/12/21 09:02:09;;;;;;;11.63;7.27;;;0.50;99.90;;;;;;5092796;28;20475;-56
2021/12/21 09:04:37;;;;;;;11.93;8.83;;;0.70;99.90;;;;;;5092781;28;20542;-56
2021/12/21 09:07:05;;;;;;;10.73;7.73;;;0.90;99.90;;;;;;5092401;28;20839;-56
2021/12/21 09:09:32;;;;;;;10.40;7.77;;;0.80;99.90;;;;;;5092480;28;20450;-57
2021/12/21 09:11:59;;;;;;;12.30;7.53;;;0.80;99.90;;;;;;5092815;28;20457;-56
2021/12/21 09:14:31;;;;;;;10.10;7.80;;;0.90;99.90;;;;;;5092728;28;20447;-56
2021/12/21 09:17:00;;;;;;;14.20;7.87;;;0.90;99.90;;;;;;5092949;28;20462;-57
2021/12/21 09:19:28;;;;;;;12.20;8.03;;;1.00;99.90;;;;;;5092630;28;20436;-57
2021/12/21 09:21:55;;;;;;;11.93;7.37;;;1.10;99.90;;;;;;5092925;28;20575;-56
2021/12/21 09:24:22;;;;;;;10.73;7.00;;;1.00;99.90;;;;;;5092805;28;20530;-57
2021/12/21 09:26:50;;;;;;;12.07;7.73;;;0.90;99.90;;;;;;5092834;28;20497;-56
2021/12/21 09:29:17;;;;;;;12.50;7.10;;;0.80;99.90;;;;;;5092524;28;20535;-56
2021/12/21 09:31:44;;;;;;;12.80;7.87;;;0.80;99.90;;;;;;5092193;28;20471;-56
2021/12/21 09:34:13;;;;;;;10.77;9.60;;;0.80;99.90;;;;;;5092463;28;20455;-56
2021/12/21 09:36:40;;;;;;;11.00;6.60;;;0.90;99.90;;;;;;5095506;28;20465;-57
2021/12/21 09:39:07;;;;;;;12.07;8.00;;;0.90;99.90;;;;;;5096922;28;20444;-57
2021/12/21 09:41:34;;;;;;;8.80;7.93;;;0.90;99.90;;;;;;5096326;28;20988;-58
2021/12/21 09:44:04;;;;;;;11.27;7.47;;;1.00;99.90;;;;;;5096450;28;20483;-57
2021/12/21 09:46:31;;;;;;;13.63;7.63;;;1.00;99.90;;;;;;5096356;28;20447;-58
2021/12/21 09:48:58;;;;;;;11.53;8.10;;;1.00;99.90;;;;;;5096284;28;20535;-56
2021/12/21 09:51:27;;;;;;;9.50;7.53;;;1.00;99.90;;;;;;5096474;28;20467;-56
2021/12/21 09:53:57;;;;;;;9.27;7.40;;;0.90;99.90;;;;;;5096178;28;20530;-56
2021/12/21 09:56:25;;;;;;;9.87;7.13;;;0.90;99.90;;;;;;5096422;28;20882;-56
2021/12/21 09:58:52;;;;;;;12.07;7.10;;;1.00;99.90;;;;;;5096335;28;20443;-56
2021/12/21 10:01:21;;;;;;;8.10;6.23;;;1.00;99.90;;;;;;5096502;28;20522;-56
2021/12/21 10:03:48;;;;;;;8.70;7.30;;;1.00;99.90;;;;;;5095872;28;20570;-56
2021/12/21 10:06:15;;;;;;;11.03;6.47;;;1.00;99.90;;;;;;5095982;28;20837;-56
2021/12/21 10:08:44;;;;;;;9.27;7.17;;;1.00;99.90;;;;;;5096052;28;20538;-57
2021/12/21 10:11:20;;;;;;;8.30;7.47;;;1.00;99.90;;;;;;5095703;28;20493;-56
2021/12/21 10:13:47;;;;;;;13.30;9.10;;;1.00;99.90;;;;;;5095694;28;20428;-57
2021/12/21 10:16:20;;;;;;;8.67;6.33;;;1.10;99.90;;;;;;5095773;28;20947;-56
2021/12/21 10:18:48;;;;;;;10.37;7.30;;;1.20;99.90;;;;;;5095766;28;20442;-56
2021/12/21 10:21:17;;;;;;;9.83;8.27;;;1.30;99.90;;;;;;5095825;28;20574;-57
2021/12/21 10:23:48;;;;;;;9.17;7.20;;;1.40;99.90;;;;;;5095769;28;20483;-57
2021/12/21 10:26:21;;;;;;;10.20;7.23;;;1.40;99.90;;;;;;5095692;28;20454;-57
2021/12/21 10:28:49;;;;;;;10.30;7.73;;;1.40;99.90;;;;;;5095570;28;20470;-56
2021/12/21 10:31:29;;;;;;;14.10;7.70;;;1.40;99.90;;;;;;5095478;28;20561;-57
2021/12/21 10:33:58;;;;;;;7.70;6.93;;;1.50;99.90;;;;;;5095306;28;20502;-56
2021/12/21 10:36:27;;;;;;;19.50;9.47;;;1.90;99.90;;;;;;5095183;28;20954;-57
2021/12/21 10:38:57;;;;;;;9.57;7.40;;;2.60;99.90;;;;;;5095421;28;20462;-57
2021/12/21 10:41:32;;;;;;;10.20;6.80;;;3.60;99.90;;;;;;5095040;28;20846;-57
2021/12/21 10:44:02;;;;;;;7.50;6.80;;;4.30;99.90;;;;;;5094807;28;20462;-57
2021/12/21 10:46:32;;;;;;;10.73;6.43;;;5.50;99.90;;;;;;5094994;28;20901;-57
2021/12/21 10:49:08;;;;;;;8.97;6.57;;;6.60;99.20;;;;;;5094909;28;20428;-57
2021/12/21 10:51:35;;;;;;;9.10;6.80;;;7.50;98.70;;;;;;5095088;28;20506;-57
2021/12/21 10:54:04;;;;;;;11.50;6.20;;;8.00;96.60;;;;;;5095235;28;20476;-57
2021/12/21 10:56:32;;;;;;;8.10;6.50;;;8.40;95.00;;;;;;5095440;28;20538;-57
2021/12/21 10:58:59;;;;;;;8.20;6.67;;;7.50;95.20;;;;;;5095562;28;20447;-57
2021/12/21 11:01:27;;;;;;;11.40;7.63;;;8.10;95.40;;;;;;5094949;28;20970;-57
2021/12/21 11:03:57;;;;;;;8.50;7.07;;;8.40;95.40;;;;;;5095112;28;20503;-57
2021/12/21 11:06:27;;;;;;;7.27;6.67;;;9.10;94.10;;;;;;5094832;28;20564;-58
2021/12/21 11:08:56;;;;;;;7.13;6.00;;;;;;;;;;5095099;28;20438;-57
2021/12/21 11:11:29;;;;;;;7.93;5.73;;;9.70;92.40;;;;;;5094919;28;20464;-57
2021/12/21 11:14:06;;;;;;;10.73;6.07;;;9.60;93.00;;;;;;5095257;28;20432;-57
2021/12/21 11:16:40;;;;;;;10.17;6.20;;;9.60;92.00;;;;;;5095007;28;20886;-57
2021/12/21 11:19:08;;;;;;;7.33;5.93;;;10.10;91.20;;;;;;5094912;28;20539;-57
2021/12/21 11:21:36;;;;;;;8.93;5.67;;;10.30;89.10;;;;;;5094727;28;20559;-57
2021/12/21 11:24:06;;;;;;;10.03;6.00;;;10.30;89.70;;;;;;5094398;28;20522;-57
2021/12/21 11:26:36;;;;;;;8.50;6.20;;;10.30;88.20;;;;;;5095012;28;20920;-57
2021/12/21 11:29:06;;;;;;;10.57;5.90;;;10.00;88.20;;;;;;5095076;28;20447;-57
2021/12/21 11:31:38;;;;;;;6.23;5.70;;;9.80;87.20;;;;;;5094556;28;20556;-57
2021/12/21 11:34:08;;;;;;;6.00;5.40;;;9.60;88.80;;;;;;5094691;28;20419;-57
2021/12/21 11:39:20;;;;;;;7.37;4.70;;;9.90;89.00;;;;;;5094660;28;20407;-57
2021/12/21 11:41:51;;;;;;;5.17;4.67;;;9.90;87.80;;;;;;5094185;28;21000;-57
2021/12/21 11:44:21;;;;;;;7.03;5.67;;;;;;;;;;5094259;28;20871;-57
2021/12/21 11:46:54;;;;;;;6.30;5.17;;;9.40;90.00;;;;;;5094521;28;20449;-57
2021/12/21 11:49:31;;;;;;;6.07;5.13;;;8.90;89.40;;;;;;5094192;28;20534;-57
2021/12/21 11:52:13;;;;;;;6.90;5.60;;;7.60;90.00;;;;;;5094147;28;20432;-57
2021/12/21 11:54:50;;;;;;;8.53;5.87;;;7.40;91.70;;;;;;5094231;28;20823;-57
2021/12/21 11:57:20;;;;;;;6.90;5.37;;;6.80;92.10;;;;;;5093853;28;20894;-57
2021/12/21 11:59:48;;;;;;;6.07;5.10;;;6.40;92.50;;;;;;5094389;28;20439;-57
2021/12/21 12:02:16;;;;;;;9.63;6.70;;;6.40;93.90;;;;;;5094027;28;20475;-56
2021/12/21 12:04:43;;;;;;;7.50;5.30;;;6.20;93.80;;;;;;5093658;28;20514;-56
2021/12/21 12:07:19;;;;;;;7.10;5.93;;;6.00;94.20;;;;;;5093573;28;20511;-55
2021/12/21 12:09:47;;;;;;;6.83;6.20;;;6.00;94.70;;;;;;5093810;28;20518;-56
2021/12/21 12:12:16;;;;;;;7.20;5.87;;;5.80;94.80;;;;;;5093543;28;20531;-56
2021/12/21 12:14:46;;;;;;;8.30;6.23;;;;;;;;;;5093284;28;20450;-58
2021/12/21 12:17:15;;;;;;;7.90;6.53;;;5.30;94.50;;;;;;5093543;28;20448;-56
2021/12/21 12:19:53;;;;;;;6.90;6.20;;;5.30;95.90;;;;;;5093372;28;20898;-57
2021/12/21 12:22:24;;;;;;;7.80;4.97;;;5.10;95.60;;;;;;5093579;28;20428;-56
2021/12/21 12:24:58;;;;;;;9.77;5.57;;;5.00;96.40;;;;;;5093668;28;20476;-56
2021/12/21 12:27:28;;;;;;;9.23;6.50;;;5.30;95.80;;;;;;5093638;28;20522;-58
2021/12/21 12:29:59;;;;;;;6.73;6.13;;;5.20;95.90;;;;;;5093469;28;20470;-56
2021/12/21 12:32:34;;;;;;;6.40;5.70;;;5.20;95.80;;;;;;5093308;28;20443;-56
2021/12/21 12:35:04;;;;;;;6.10;5.60;;;5.00;96.10;;;;;;5092860;28;20447;-56
2021/12/21 12:37:31;;;;;;;6.87;5.50;;;5.00;96.10;;;;;;5092826;28;20938;-56
2021/12/21 12:40:07;;;;;;;8.77;5.03;;;5.00;96.30;;;;;;5093198;28;20468;-55
2021/12/21 12:42:34;;;;;;;8.77;6.60;;;5.10;96.30;;;;;;5093313;28;20431;-58
2021/12/21 12:45:13;;;;;;;11.40;5.93;;;5.40;96.40;;;;;;5093009;28;20482;-56
2021/12/21 12:47:44;;;;;;;8.20;5.30;;;5.60;96.40;;;;;;5092814;28;20907;-56
2021/12/21 12:50:17;;;;;;;7.03;6.43;;;5.80;95.90;;;;;;5092914;28;20583;-56
2021/12/21 12:52:56;;;;;;;7.13;5.60;;;5.70;95.70;;;;;;5093029;28;20447;-55
2021/12/21 12:55:26;;;;;;;6.13;5.53;;;5.50;96.50;;;;;;5093506;28;20531;-59
2021/12/21 12:57:57;;;;;;;12.27;6.30;;;5.40;96.30;;;;;;5093077;28;20432;-56
2021/12/21 13:00:30;;;;;;;8.33;5.87;;;5.30;96.20;;;;;;5092876;28;20554;-56
2021/12/21 13:03:00;;;;;;;6.43;5.47;;;5.10;96.70;;;;;;5093254;28;20795;-57
2021/12/21 13:05:34;;;;;;;6.37;5.57;;;5.30;96.90;;;;;;5093021;28;20452;-56
2021/12/21 13:08:09;;;;;;;6.43;5.80;;;5.00;97.10;;;;;;5092591;28;20497;-56
2021/12/21 13:10:37;;;;;;;5.57;5.07;;;5.00;97.30;;;;;;5092354;28;20583;-57
2021/12/21 13:13:05;;;;;;;6.60;5.87;;;4.90;97.40;;;;;;5092743;28;20440;-57
2021/12/21 13:15:36;;;;;;;6.63;5.50;;;4.90;97.90;;;;;;5092671;28;20456;-57
2021/12/21 13:18:05;;;;;;;8.43;4.87;;;5.10;97.10;;;;;;5092964;28;20547;-57
2021/12/21 13:20:33;;;;;;;4.73;4.33;;;5.60;96.60;;;;;;5092471;28;20465;-57
2021/12/21 13:23:10;;;;;;;5.33;4.40;;;5.40;96.30;;;;;;5092690;28;20842;-57
2021/12/21 13:25:38;;;;;;;6.60;5.33;;;5.20;96.70;;;;;;5092574;28;20514;-57
2021/12/21 13:28:10;;;;;;;12.70;5.87;;;5.30;96.40;;;;;;5092771;28;20454;-57
2021/12/21 13:30:45;;;;;;;7.80;5.40;;;5.30;96.80;;;;;;5092676;28;20475;-57
2021/12/21 13:33:22;;;;;;;6.50;5.60;;;5.40;96.70;;;;;;5092606;28;20854;-58